»·PEaware :: N226AN KSAN-KSAN

N226AN :: KSAN-KSAN

FLIGHT INFORMATION

Flight Status: Arrived
Operator: Privately registered:
United States
More flights under this callsign
Pilot: Romain L. (19401)
Aircraft: BEECH AIRCRAFT DEBONAIR BONANZA
(BE33)
More flights by this aircraft type
Origin: KSAN San Diego Intl-Lindbergh
United States
Destination: KSAN San Diego Intl-Lindbergh
United States
More flights between these airports :: More routes between these airports
Route: +
File this flight plan on PilotEdge
Remarks:
Altitude:
(Current/Filed)
0ft
Speed:
(Current/Filed)
0kts
Departed: 27-Jul-18 02:52 PM
Arrived: 27-Jul-18 03:51 PM
Distance/Time
Traveled:
1nm/0:59
Distance/Time
To Go:
Arrived

Flight Plot

Page will automatically refresh every two minutes.


Map Options




Map Legend


Flown Route
Filed Route
Departure Airport
Arrival Airport
Navaid (VOR, NDB)
Fix

Horizontal Profiles

Position Reports

Time Latitude Longitude Heading Altitude Ground
Speed
27-Jul-18 14:52 32.731324 -117.180492 287 23ft 74kts
27-Jul-18 14:53 32.743825 -117.212495 325 1558ft 131kts
27-Jul-18 14:54 32.784350 -117.227776 341 1963ft 170kts
27-Jul-18 14:55 32.830031 -117.232279 13 2424ft 167kts
27-Jul-18 14:56 32.874643 -117.231303 335 2950ft 166kts
27-Jul-18 14:57 32.918211 -117.247986 346 3491ft 166kts
27-Jul-18 14:58 32.966389 -117.255317 1 3469ft 179kts
27-Jul-18 14:59 33.016094 -117.251902 2 3551ft 179kts
27-Jul-18 15:00 33.064763 -117.241166 15 3525ft 180kts
27-Jul-18 15:01 33.107422 -117.228992 8 3525ft 180kts
27-Jul-18 15:02 33.139617 -117.222144 8 3524ft 181kts
27-Jul-18 15:03 33.185722 -117.212128 8 3523ft 182kts
27-Jul-18 15:04 33.235443 -117.201297 8 3522ft 182kts
27-Jul-18 15:05 33.285320 -117.190418 8 3522ft 183kts
27-Jul-18 15:06 33.330701 -117.180512 8 3520ft 184kts
27-Jul-18 15:07 33.380982 -117.169525 9 3518ft 186kts
27-Jul-18 15:08 33.422505 -117.160442 9 3517ft 187kts
27-Jul-18 15:09 33.471790 -117.151618 4 3368ft 166kts
27-Jul-18 15:10 33.510473 -117.144667 11 2657ft 131kts
27-Jul-18 15:11 33.544520 -117.136301 11 1758ft 104kts
27-Jul-18 15:12 33.569230 -117.129795 10 1362ft 84kts
27-Jul-18 15:13 33.577550 -117.128741 210 1355ft 0kts
27-Jul-18 15:14 33.577495 -117.128789 219 1355ft 3kts
27-Jul-18 15:15 33.575476 -117.129948 199 1355ft 0kts
27-Jul-18 15:16 33.575476 -117.129948 199 1355ft 0kts
27-Jul-18 15:17 33.575476 -117.129948 199 1355ft 0kts
27-Jul-18 15:18 33.575476 -117.129948 199 1355ft 0kts
27-Jul-18 15:19 33.575476 -117.129948 199 1355ft 0kts
27-Jul-18 15:20 33.575476 -117.129948 199 1355ft 0kts
27-Jul-18 15:21 33.575476 -117.129948 199 1355ft 0kts
27-Jul-18 15:22 33.575456 -117.129172 46 1355ft 11kts
27-Jul-18 15:23 33.578698 -117.128167 13 1355ft 18kts
27-Jul-18 15:24 33.582292 -117.126946 102 1355ft 0kts
27-Jul-18 15:25 33.582292 -117.126946 102 1355ft 0kts
27-Jul-18 15:26 33.582292 -117.126946 102 1355ft 0kts
27-Jul-18 15:27 33.578189 -117.127406 190 1356ft 83kts
27-Jul-18 15:28 33.545871 -117.131987 182 2328ft 134kts
27-Jul-18 15:29 33.514264 -117.137999 196 3166ft 147kts
27-Jul-18 15:30 33.475417 -117.152050 198 4192ft 145kts
27-Jul-18 15:31 33.438405 -117.168443 199 5057ft 149kts
27-Jul-18 15:32 33.398452 -117.189586 201 5358ft 170kts
27-Jul-18 15:33 33.353153 -117.206194 196 5472ft 174kts
27-Jul-18 15:34 33.306482 -117.222834 197 5475ft 176kts
27-Jul-18 15:35 33.259147 -117.238727 196 5478ft 177kts
27-Jul-18 15:36 33.215581 -117.253016 196 5480ft 177kts
27-Jul-18 15:37 33.168320 -117.268498 196 5483ft 174kts
27-Jul-18 15:38 33.120182 -117.280209 169 4894ft 184kts
27-Jul-18 15:39 33.070045 -117.268213 171 4364ft 183kts
27-Jul-18 15:40 33.022332 -117.257248 171 3943ft 184kts
27-Jul-18 15:41 32.972068 -117.245730 171 3884ft 185kts
27-Jul-18 15:42 32.921803 -117.238676 190 3705ft 180kts
27-Jul-18 15:43 32.877407 -117.239246 178 3202ft 158kts
27-Jul-18 15:44 32.838015 -117.230122 168 3471ft 131kts
27-Jul-18 15:45 32.804279 -117.215325 164 3071ft 125kts
27-Jul-18 15:46 32.770280 -117.202904 166 2061ft 131kts
27-Jul-18 15:47 32.755824 -117.169334 93 1288ft 121kts
27-Jul-18 15:48 32.750564 -117.132905 147 1061ft 111kts
27-Jul-18 15:49 32.722829 -117.132492 235 913ft 89kts
27-Jul-18 15:50 32.726126 -117.158731 284 538ft 72kts
27-Jul-18 15:51 32.731533 -117.181320 284 23ft 63kts
27-Jul-18 15:52 32.733961 -117.187984 29 22ft 0kts
27-Jul-18 15:53 32.733226 -117.183581 107 22ft 25kts
27-Jul-18 15:54 32.732502 -117.177743 65 22ft 8kts
27-Jul-18 15:55 32.732283 -117.177262 196 22ft 0kts
27-Jul-18 15:56 32.732283 -117.177262 196 22ft 0kts
27-Jul-18 15:57 32.732283 -117.177262 196 22ft 0kts
27-Jul-18 15:58 32.732283 -117.177262 196 22ft 0kts
27-Jul-18 15:59 32.732283 -117.177262 196 22ft 0kts
27-Jul-18 16:00 32.732283 -117.177262 196 22ft 0kts
27-Jul-18 16:01 32.756227 -117.175195 95 1400ft 122kts
27-Jul-18 16:02 32.736974 -117.130144 182 982ft 104kts
27-Jul-18 16:03 32.730420 -117.176653 285 87ft 71kts
27-Jul-18 16:04 32.732283 -117.177262 196 22ft 0kts

Navigation Log

Ident Type
1. KSAN Airport
2. KSAN Airport